sensor_id;sensor_type;location;lat;lon;timestamp;P1;durP1;ratioP1;P2;durP2;ratioP2
20671;SDS011;10495;50.922;4.760;2023-02-01T00:02:01;18.93;;;7.20;;
20671;SDS011;10495;50.922;4.760;2023-02-01T00:04:27;15.23;;;6.67;;
20671;SDS011;10495;50.922;4.760;2023-02-01T00:06:53;15.97;;;6.83;;
20671;SDS011;10495;50.922;4.760;2023-02-01T00:09:18;14.63;;;6.57;;
20671;SDS011;10495;50.922;4.760;2023-02-01T00:11:44;21.73;;;7.20;;
20671;SDS011;10495;50.922;4.760;2023-02-01T00:14:10;16.20;;;7.47;;
20671;SDS011;10495;50.922;4.760;2023-02-01T00:16:38;14.93;;;7.37;;
20671;SDS011;10495;50.922;4.760;2023-02-01T00:19:05;16.97;;;7.07;;
20671;SDS011;10495;50.922;4.760;2023-02-01T00:21:36;13.13;;;6.10;;
20671;SDS011;10495;50.922;4.760;2023-02-01T00:24:02;13.10;;;6.13;;
20671;SDS011;10495;50.922;4.760;2023-02-01T00:26:32;16.53;;;6.23;;
20671;SDS011;10495;50.922;4.760;2023-02-01T00:29:04;12.90;;;6.40;;
20671;SDS011;10495;50.922;4.760;2023-02-01T00:31:32;18.13;;;7.23;;
20671;SDS011;10495;50.922;4.760;2023-02-01T00:33:58;15.77;;;6.17;;
20671;SDS011;10495;50.922;4.760;2023-02-01T00:36:24;15.73;;;6.73;;
20671;SDS011;10495;50.922;4.760;2023-02-01T00:38:49;11.47;;;5.60;;
20671;SDS011;10495;50.922;4.760;2023-02-01T00:41:16;17.70;;;6.37;;
20671;SDS011;10495;50.922;4.760;2023-02-01T00:43:43;14.00;;;5.73;;
20671;SDS011;10495;50.922;4.760;2023-02-01T00:46:10;15.07;;;5.97;;
20671;SDS011;10495;50.922;4.760;2023-02-01T00:48:37;19.70;;;5.70;;
20671;SDS011;10495;50.922;4.760;2023-02-01T00:51:04;15.90;;;5.63;;
20671;SDS011;10495;50.922;4.760;2023-02-01T00:53:32;21.17;;;5.70;;
20671;SDS011;10495;50.922;4.760;2023-02-01T00:55:57;15.00;;;5.83;;
20671;SDS011;10495;50.922;4.760;2023-02-01T00:58:23;18.50;;;6.67;;
20671;SDS011;10495;50.922;4.760;2023-02-01T01:01:00;19.90;;;5.67;;
20671;SDS011;10495;50.922;4.760;2023-02-01T01:03:29;12.10;;;5.73;;
20671;SDS011;10495;50.922;4.760;2023-02-01T01:06:03;18.73;;;5.50;;
20671;SDS011;10495;50.922;4.760;2023-02-01T01:08:33;11.27;;;5.70;;
20671;SDS011;10495;50.922;4.760;2023-02-01T01:11:11;12.60;;;5.70;;
20671;SDS011;10495;50.922;4.760;2023-02-01T01:13:39;13.70;;;5.30;;
20671;SDS011;10495;50.922;4.760;2023-02-01T01:16:05;13.87;;;5.20;;
20671;SDS011;10495;50.922;4.760;2023-02-01T01:18:32;17.30;;;4.97;;
20671;SDS011;10495;50.922;4.760;2023-02-01T01:20:58;17.10;;;5.70;;
20671;SDS011;10495;50.922;4.760;2023-02-01T01:23:24;11.60;;;5.73;;
20671;SDS011;10495;50.922;4.760;2023-02-01T01:25:50;9.40;;;4.90;;
20671;SDS011;10495;50.922;4.760;2023-02-01T01:28:15;16.73;;;5.60;;
20671;SDS011;10495;50.922;4.760;2023-02-01T01:30:41;15.20;;;6.07;;
20671;SDS011;10495;50.922;4.760;2023-02-01T01:33:07;16.00;;;5.53;;
20671;SDS011;10495;50.922;4.760;2023-02-01T01:35:32;12.77;;;4.50;;
20671;SDS011;10495;50.922;4.760;2023-02-01T01:37:59;13.33;;;4.67;;
20671;SDS011;10495;50.922;4.760;2023-02-01T01:40:25;12.40;;;5.43;;
20671;SDS011;10495;50.922;4.760;2023-02-01T01:42:51;14.93;;;5.27;;
20671;SDS011;10495;50.922;4.760;2023-02-01T01:47:59;15.43;;;4.70;;
20671;SDS011;10495;50.922;4.760;2023-02-01T01:50:29;10.70;;;4.40;;
20671;SDS011;10495;50.922;4.760;2023-02-01T01:52:58;13.13;;;4.60;;
20671;SDS011;10495;50.922;4.760;2023-02-01T01:55:27;12.53;;;4.83;;
20671;SDS011;10495;50.922;4.760;2023-02-01T01:58:02;17.00;;;4.97;;
20671;SDS011;10495;50.922;4.760;2023-02-01T02:00:30;21.53;;;4.83;;
20671;SDS011;10495;50.922;4.760;2023-02-01T02:03:03;13.00;;;4.77;;
20671;SDS011;10495;50.922;4.760;2023-02-01T02:05:39;17.10;;;4.17;;
20671;SDS011;10495;50.922;4.760;2023-02-01T02:08:06;16.30;;;5.13;;
20671;SDS011;10495;50.922;4.760;2023-02-01T02:10:31;11.20;;;4.50;;
20671;SDS011;10495;50.922;4.760;2023-02-01T02:13:16;16.33;;;4.77;;
20671;SDS011;10495;50.922;4.760;2023-02-01T02:15:48;8.90;;;4.23;;
20671;SDS011;10495;50.922;4.760;2023-02-01T02:18:41;12.73;;;4.67;;
20671;SDS011;10495;50.922;4.760;2023-02-01T02:21:43;13.87;;;4.20;;
20671;SDS011;10495;50.922;4.760;2023-02-01T02:38:03;15.37;;;3.93;;
20671;SDS011;10495;50.922;4.760;2023-02-01T02:43:22;10.80;;;3.33;;
20671;SDS011;10495;50.922;4.760;2023-02-01T02:49:08;13.70;;;3.43;;
20671;SDS011;10495;50.922;4.760;2023-02-01T02:51:49;16.17;;;3.57;;
20671;SDS011;10495;50.922;4.760;2023-02-01T02:54:40;14.07;;;3.63;;
20671;SDS011;10495;50.922;4.760;2023-02-01T02:57:18;9.67;;;3.27;;
20671;SDS011;10495;50.922;4.760;2023-02-01T03:00:13;17.10;;;3.80;;
20671;SDS011;10495;50.922;4.760;2023-02-01T03:03:00;12.13;;;3.57;;
20671;SDS011;10495;50.922;4.760;2023-02-01T03:05:45;13.13;;;3.40;;
20671;SDS011;10495;50.922;4.760;2023-02-01T03:13:28;13.13;;;3.93;;
20671;SDS011;10495;50.922;4.760;2023-02-01T03:21:24;10.73;;;3.87;;
20671;SDS011;10495;50.922;4.760;2023-02-01T03:23:53;19.57;;;3.77;;
20671;SDS011;10495;50.922;4.760;2023-02-01T03:26:25;12.83;;;3.27;;
20671;SDS011;10495;50.922;4.760;2023-02-01T03:28:57;13.97;;;3.90;;
20671;SDS011;10495;50.922;4.760;2023-02-01T03:31:30;10.87;;;3.63;;
20671;SDS011;10495;50.922;4.760;2023-02-01T03:33:58;13.47;;;3.47;;
20671;SDS011;10495;50.922;4.760;2023-02-01T03:36:26;16.47;;;3.73;;
20671;SDS011;10495;50.922;4.760;2023-02-01T03:41:56;13.63;;;3.50;;
20671;SDS011;10495;50.922;4.760;2023-02-01T03:44:26;14.27;;;3.77;;
20671;SDS011;10495;50.922;4.760;2023-02-01T03:47:16;14.33;;;4.13;;
20671;SDS011;10495;50.922;4.760;2023-02-01T03:49:48;8.10;;;3.10;;
20671;SDS011;10495;50.922;4.760;2023-02-01T03:52:30;19.37;;;4.10;;
20671;SDS011;10495;50.922;4.760;2023-02-01T03:55:03;18.63;;;4.47;;
20671;SDS011;10495;50.922;4.760;2023-02-01T03:57:35;10.60;;;3.40;;
20671;SDS011;10495;50.922;4.760;2023-02-01T04:02:33;8.77;;;3.03;;
20671;SDS011;10495;50.922;4.760;2023-02-01T04:04:58;10.37;;;3.93;;
20671;SDS011;10495;50.922;4.760;2023-02-01T04:07:24;19.67;;;4.57;;
20671;SDS011;10495;50.922;4.760;2023-02-01T04:09:49;8.83;;;3.40;;
20671;SDS011;10495;50.922;4.760;2023-02-01T04:12:15;8.30;;;2.90;;
20671;SDS011;10495;50.922;4.760;2023-02-01T04:14:41;12.33;;;3.30;;
20671;SDS011;10495;50.922;4.760;2023-02-01T04:17:06;15.53;;;4.17;;
20671;SDS011;10495;50.922;4.760;2023-02-01T04:19:32;14.07;;;3.43;;
20671;SDS011;10495;50.922;4.760;2023-02-01T04:21:57;12.67;;;3.10;;
20671;SDS011;10495;50.922;4.760;2023-02-01T04:24:23;12.80;;;3.43;;
20671;SDS011;10495;50.922;4.760;2023-02-01T04:26:49;10.43;;;3.97;;
20671;SDS011;10495;50.922;4.760;2023-02-01T04:29:14;13.03;;;4.50;;
20671;SDS011;10495;50.922;4.760;2023-02-01T04:31:40;14.97;;;4.00;;
20671;SDS011;10495;50.922;4.760;2023-02-01T04:34:06;19.10;;;4.13;;
20671;SDS011;10495;50.922;4.760;2023-02-01T04:36:36;11.30;;;3.23;;
20671;SDS011;10495;50.922;4.760;2023-02-01T04:39:02;14.57;;;4.40;;
20671;SDS011;10495;50.922;4.760;2023-02-01T04:41:30;17.77;;;4.07;;
20671;SDS011;10495;50.922;4.760;2023-02-01T04:43:56;15.07;;;3.50;;
20671;SDS011;10495;50.922;4.760;2023-02-01T04:46:21;13.37;;;4.13;;
20671;SDS011;10495;50.922;4.760;2023-02-01T04:48:47;15.23;;;3.73;;
20671;SDS011;10495;50.922;4.760;2023-02-01T04:51:15;16.73;;;3.77;;
20671;SDS011;10495;50.922;4.760;2023-02-01T04:53:43;18.27;;;3.90;;
20671;SDS011;10495;50.922;4.760;2023-02-01T04:56:09;13.53;;;4.30;;
20671;SDS011;10495;50.922;4.760;2023-02-01T04:58:35;17.07;;;3.87;;
20671;SDS011;10495;50.922;4.760;2023-02-01T05:01:06;15.50;;;4.10;;
20671;SDS011;10495;50.922;4.760;2023-02-01T05:03:35;13.67;;;3.67;;
20671;SDS011;10495;50.922;4.760;2023-02-01T05:06:01;15.43;;;4.27;;
20671;SDS011;10495;50.922;4.760;2023-02-01T05:08:29;16.33;;;3.90;;
20671;SDS011;10495;50.922;4.760;2023-02-01T05:10:54;15.27;;;3.80;;
20671;SDS011;10495;50.922;4.760;2023-02-01T05:13:20;14.07;;;3.23;;
20671;SDS011;10495;50.922;4.760;2023-02-01T05:16:04;17.13;;;4.27;;
20671;SDS011;10495;50.922;4.760;2023-02-01T05:18:30;21.60;;;4.13;;
20671;SDS011;10495;50.922;4.760;2023-02-01T05:20:56;15.07;;;3.50;;
20671;SDS011;10495;50.922;4.760;2023-02-01T05:23:24;9.57;;;2.73;;
20671;SDS011;10495;50.922;4.760;2023-02-01T05:25:50;20.83;;;4.07;;
20671;SDS011;10495;50.922;4.760;2023-02-01T05:28:15;14.13;;;3.97;;
20671;SDS011;10495;50.922;4.760;2023-02-01T05:30:41;13.27;;;3.20;;
20671;SDS011;10495;50.922;4.760;2023-02-01T05:33:06;14.70;;;4.10;;
20671;SDS011;10495;50.922;4.760;2023-02-01T05:35:32;20.87;;;4.47;;
20671;SDS011;10495;50.922;4.760;2023-02-01T05:37:57;9.43;;;3.07;;
20671;SDS011;10495;50.922;4.760;2023-02-01T05:40:23;13.63;;;4.00;;
20671;SDS011;10495;50.922;4.760;2023-02-01T05:42:49;11.10;;;3.53;;
20671;SDS011;10495;50.922;4.760;2023-02-01T05:45:14;18.60;;;4.00;;
20671;SDS011;10495;50.922;4.760;2023-02-01T05:47:40;14.20;;;3.83;;
20671;SDS011;10495;50.922;4.760;2023-02-01T05:50:06;18.40;;;4.60;;
20671;SDS011;10495;50.922;4.760;2023-02-01T05:52:32;11.70;;;3.50;;
20671;SDS011;10495;50.922;4.760;2023-02-01T05:54:58;18.13;;;4.30;;
20671;SDS011;10495;50.922;4.760;2023-02-01T05:57:24;12.80;;;3.53;;
20671;SDS011;10495;50.922;4.760;2023-02-01T05:59:49;12.83;;;3.67;;
20671;SDS011;10495;50.922;4.760;2023-02-01T06:02:15;16.97;;;3.50;;
20671;SDS011;10495;50.922;4.760;2023-02-01T06:04:41;21.03;;;3.23;;
20671;SDS011;10495;50.922;4.760;2023-02-01T06:07:07;14.07;;;3.80;;
20671;SDS011;10495;50.922;4.760;2023-02-01T06:09:34;14.13;;;3.60;;
20671;SDS011;10495;50.922;4.760;2023-02-01T06:12:00;10.27;;;3.33;;
20671;SDS011;10495;50.922;4.760;2023-02-01T06:14:26;14.70;;;3.70;;
20671;SDS011;10495;50.922;4.760;2023-02-01T06:16:52;16.43;;;3.00;;
20671;SDS011;10495;50.922;4.760;2023-02-01T06:19:21;19.20;;;3.77;;
20671;SDS011;10495;50.922;4.760;2023-02-01T06:21:48;16.87;;;4.00;;
20671;SDS011;10495;50.922;4.760;2023-02-01T06:24:13;15.93;;;4.03;;
20671;SDS011;10495;50.922;4.760;2023-02-01T06:26:39;25.17;;;4.33;;
20671;SDS011;10495;50.922;4.760;2023-02-01T06:29:05;12.17;;;3.93;;
20671;SDS011;10495;50.922;4.760;2023-02-01T06:31:31;7.43;;;3.07;;
20671;SDS011;10495;50.922;4.760;2023-02-01T06:33:59;12.30;;;4.00;;
20671;SDS011;10495;50.922;4.760;2023-02-01T06:36:25;16.20;;;4.10;;
20671;SDS011;10495;50.922;4.760;2023-02-01T06:38:50;14.63;;;3.73;;
20671;SDS011;10495;50.922;4.760;2023-02-01T06:41:16;17.00;;;4.03;;
20671;SDS011;10495;50.922;4.760;2023-02-01T06:43:42;18.67;;;4.90;;
20671;SDS011;10495;50.922;4.760;2023-02-01T06:46:09;15.73;;;3.83;;
20671;SDS011;10495;50.922;4.760;2023-02-01T06:48:37;9.80;;;3.30;;
20671;SDS011;10495;50.922;4.760;2023-02-01T06:51:02;14.73;;;3.83;;
20671;SDS011;10495;50.922;4.760;2023-02-01T06:53:28;15.47;;;3.60;;
20671;SDS011;10495;50.922;4.760;2023-02-01T06:55:58;20.70;;;4.07;;
20671;SDS011;10495;50.922;4.760;2023-02-01T06:58:31;17.63;;;3.73;;
20671;SDS011;10495;50.922;4.760;2023-02-01T07:00:58;11.97;;;3.57;;
20671;SDS011;10495;50.922;4.760;2023-02-01T07:03:33;11.77;;;3.33;;
20671;SDS011;10495;50.922;4.760;2023-02-01T07:05:59;15.20;;;4.37;;
20671;SDS011;10495;50.922;4.760;2023-02-01T07:08:26;19.53;;;4.40;;
20671;SDS011;10495;50.922;4.760;2023-02-01T07:10:52;15.97;;;3.70;;
20671;SDS011;10495;50.922;4.760;2023-02-01T07:13:18;13.03;;;3.70;;
20671;SDS011;10495;50.922;4.760;2023-02-01T07:15:46;16.33;;;3.67;;
20671;SDS011;10495;50.922;4.760;2023-02-01T07:18:12;15.73;;;3.60;;
20671;SDS011;10495;50.922;4.760;2023-02-01T07:20:39;13.63;;;3.13;;
20671;SDS011;10495;50.922;4.760;2023-02-01T07:23:05;12.83;;;3.40;;
20671;SDS011;10495;50.922;4.760;2023-02-01T07:25:31;11.30;;;3.50;;
20671;SDS011;10495;50.922;4.760;2023-02-01T07:27:59;10.07;;;3.20;;
20671;SDS011;10495;50.922;4.760;2023-02-01T07:30:24;12.60;;;4.13;;
20671;SDS011;10495;50.922;4.760;2023-02-01T07:32:51;13.80;;;3.80;;
20671;SDS011;10495;50.922;4.760;2023-02-01T07:35:16;14.80;;;4.10;;
20671;SDS011;10495;50.922;4.760;2023-02-01T07:37:42;20.73;;;3.90;;
20671;SDS011;10495;50.922;4.760;2023-02-01T07:40:08;15.03;;;4.00;;
20671;SDS011;10495;50.922;4.760;2023-02-01T07:42:34;12.40;;;3.87;;
20671;SDS011;10495;50.922;4.760;2023-02-01T07:44:59;12.63;;;4.30;;
20671;SDS011;10495;50.922;4.760;2023-02-01T07:47:29;16.57;;;3.67;;
20671;SDS011;10495;50.922;4.760;2023-02-01T07:49:55;18.23;;;4.00;;
20671;SDS011;10495;50.922;4.760;2023-02-01T07:52:20;13.60;;;3.80;;
20671;SDS011;10495;50.922;4.760;2023-02-01T07:54:46;17.93;;;4.73;;
20671;SDS011;10495;50.922;4.760;2023-02-01T07:57:11;16.47;;;4.27;;
20671;SDS011;10495;50.922;4.760;2023-02-01T07:59:38;11.30;;;3.70;;
20671;SDS011;10495;50.922;4.760;2023-02-01T08:02:26;16.63;;;3.77;;
20671;SDS011;10495;50.922;4.760;2023-02-01T08:04:52;22.80;;;5.20;;
20671;SDS011;10495;50.922;4.760;2023-02-01T08:07:20;12.23;;;4.00;;
20671;SDS011;10495;50.922;4.760;2023-02-01T08:09:47;13.60;;;3.50;;
20671;SDS011;10495;50.922;4.760;2023-02-01T08:12:12;15.83;;;3.50;;
20671;SDS011;10495;50.922;4.760;2023-02-01T08:14:38;15.10;;;3.50;;
20671;SDS011;10495;50.922;4.760;2023-02-01T08:17:05;14.03;;;3.87;;
20671;SDS011;10495;50.922;4.760;2023-02-01T08:19:31;26.87;;;4.07;;
20671;SDS011;10495;50.922;4.760;2023-02-01T08:21:57;13.33;;;3.97;;
20671;SDS011;10495;50.922;4.760;2023-02-01T08:24:24;13.60;;;3.70;;
20671;SDS011;10495;50.922;4.760;2023-02-01T08:26:52;10.60;;;4.07;;
20671;SDS011;10495;50.922;4.760;2023-02-01T08:29:18;10.20;;;3.57;;
20671;SDS011;10495;50.922;4.760;2023-02-01T08:31:46;12.20;;;4.27;;
20671;SDS011;10495;50.922;4.760;2023-02-01T08:34:11;16.20;;;3.90;;
20671;SDS011;10495;50.922;4.760;2023-02-01T08:36:38;10.30;;;3.67;;
20671;SDS011;10495;50.922;4.760;2023-02-01T08:39:03;13.70;;;4.17;;
20671;SDS011;10495;50.922;4.760;2023-02-01T08:41:33;17.73;;;3.73;;
20671;SDS011;10495;50.922;4.760;2023-02-01T08:44:02;15.03;;;3.80;;
20671;SDS011;10495;50.922;4.760;2023-02-01T08:46:27;10.57;;;4.17;;
20671;SDS011;10495;50.922;4.760;2023-02-01T08:48:56;13.53;;;4.70;;
20671;SDS011;10495;50.922;4.760;2023-02-01T08:51:22;15.33;;;3.70;;
20671;SDS011;10495;50.922;4.760;2023-02-01T08:53:50;15.80;;;4.13;;
20671;SDS011;10495;50.922;4.760;2023-02-01T08:56:16;10.10;;;3.93;;
20671;SDS011;10495;50.922;4.760;2023-02-01T08:58:43;18.30;;;4.10;;
20671;SDS011;10495;50.922;4.760;2023-02-01T09:01:12;16.63;;;4.63;;
20671;SDS011;10495;50.922;4.760;2023-02-01T09:03:40;15.67;;;4.63;;
20671;SDS011;10495;50.922;4.760;2023-02-01T09:06:09;21.83;;;4.00;;
20671;SDS011;10495;50.922;4.760;2023-02-01T09:08:37;12.00;;;4.07;;
20671;SDS011;10495;50.922;4.760;2023-02-01T09:11:04;17.13;;;5.43;;
20671;SDS011;10495;50.922;4.760;2023-02-01T09:13:32;16.97;;;4.67;;
20671;SDS011;10495;50.922;4.760;2023-02-01T09:15:58;15.73;;;3.70;;
20671;SDS011;10495;50.922;4.760;2023-02-01T09:18:24;18.67;;;3.77;;
20671;SDS011;10495;50.922;4.760;2023-02-01T09:20:51;14.50;;;3.77;;
20671;SDS011;10495;50.922;4.760;2023-02-01T09:23:19;20.20;;;3.77;;
20671;SDS011;10495;50.922;4.760;2023-02-01T09:25:45;16.43;;;4.00;;
20671;SDS011;10495;50.922;4.760;2023-02-01T09:28:11;12.97;;;3.70;;
20671;SDS011;10495;50.922;4.760;2023-02-01T09:30:39;18.20;;;3.90;;
20671;SDS011;10495;50.922;4.760;2023-02-01T09:33:04;15.27;;;4.20;;
20671;SDS011;10495;50.922;4.760;2023-02-01T09:35:30;13.60;;;3.90;;
20671;SDS011;10495;50.922;4.760;2023-02-01T09:37:58;15.53;;;4.20;;
20671;SDS011;10495;50.922;4.760;2023-02-01T09:40:24;12.47;;;4.67;;
20671;SDS011;10495;50.922;4.760;2023-02-01T09:45:37;10.73;;;3.53;;
20671;SDS011;10495;50.922;4.760;2023-02-01T09:48:11;11.20;;;3.30;;
20671;SDS011;10495;50.922;4.760;2023-02-01T09:50:43;13.20;;;3.77;;
20671;SDS011;10495;50.922;4.760;2023-02-01T09:56:12;15.30;;;3.80;;
20671;SDS011;10495;50.922;4.760;2023-02-01T10:01:47;13.40;;;3.47;;
20671;SDS011;10495;50.922;4.760;2023-02-01T10:04:13;16.27;;;3.93;;
20671;SDS011;10495;50.922;4.760;2023-02-01T10:06:46;11.80;;;3.50;;
20671;SDS011;10495;50.922;4.760;2023-02-01T10:20:41;22.50;;;3.90;;
20671;SDS011;10495;50.922;4.760;2023-02-01T10:26:22;14.70;;;4.20;;
20671;SDS011;10495;50.922;4.760;2023-02-01T10:28:53;11.87;;;3.23;;
20671;SDS011;10495;50.922;4.760;2023-02-01T10:31:27;11.33;;;3.63;;
20671;SDS011;10495;50.922;4.760;2023-02-01T10:33:57;11.63;;;3.30;;
20671;SDS011;10495;50.922;4.760;2023-02-01T10:36:29;14.63;;;4.23;;
20671;SDS011;10495;50.922;4.760;2023-02-01T10:39:00;11.50;;;3.67;;
20671;SDS011;10495;50.922;4.760;2023-02-01T10:41:31;18.73;;;5.03;;
20671;SDS011;10495;50.922;4.760;2023-02-01T10:43:59;14.53;;;3.70;;
20671;SDS011;10495;50.922;4.760;2023-02-01T10:46:29;15.80;;;3.83;;
20671;SDS011;10495;50.922;4.760;2023-02-01T10:48:55;13.47;;;3.37;;
20671;SDS011;10495;50.922;4.760;2023-02-01T10:51:26;12.93;;;3.50;;
20671;SDS011;10495;50.922;4.760;2023-02-01T10:54:03;13.27;;;3.67;;
20671;SDS011;10495;50.922;4.760;2023-02-01T10:56:39;12.83;;;3.47;;
20671;SDS011;10495;50.922;4.760;2023-02-01T10:59:05;10.63;;;3.77;;
20671;SDS011;10495;50.922;4.760;2023-02-01T11:01:40;10.33;;;4.23;;
20671;SDS011;10495;50.922;4.760;2023-02-01T11:04:09;12.80;;;3.30;;
20671;SDS011;10495;50.922;4.760;2023-02-01T11:06:51;11.20;;;3.30;;
20671;SDS011;10495;50.922;4.760;2023-02-01T11:09:30;11.17;;;2.97;;
20671;SDS011;10495;50.922;4.760;2023-02-01T11:11:57;13.60;;;3.63;;
20671;SDS011;10495;50.922;4.760;2023-02-01T11:16:53;13.50;;;3.03;;
20671;SDS011;10495;50.922;4.760;2023-02-01T11:19:25;10.10;;;3.07;;
20671;SDS011;10495;50.922;4.760;2023-02-01T11:21:55;12.87;;;2.67;;
20671;SDS011;10495;50.922;4.760;2023-02-01T11:24:23;16.37;;;3.37;;
20671;SDS011;10495;50.922;4.760;2023-02-01T11:26:59;15.83;;;3.33;;
20671;SDS011;10495;50.922;4.760;2023-02-01T11:29:32;12.80;;;3.03;;
20671;SDS011;10495;50.922;4.760;2023-02-01T11:32:02;10.87;;;2.93;;
20671;SDS011;10495;50.922;4.760;2023-02-01T11:34:31;15.33;;;3.10;;
20671;SDS011;10495;50.922;4.760;2023-02-01T11:37:21;10.27;;;3.10;;
20671;SDS011;10495;50.922;4.760;2023-02-01T11:43:08;12.97;;;3.50;;
20671;SDS011;10495;50.922;4.760;2023-02-01T11:45:46;14.33;;;2.90;;
20671;SDS011;10495;50.922;4.760;2023-02-01T11:48:26;13.27;;;3.03;;
20671;SDS011;10495;50.922;4.760;2023-02-01T11:53:56;12.73;;;2.93;;
20671;SDS011;10495;50.922;4.760;2023-02-01T12:10:18;10.10;;;2.73;;
20671;SDS011;10495;50.922;4.760;2023-02-01T12:26:44;9.67;;;2.80;;
20671;SDS011;10495;50.922;4.760;2023-02-01T12:29:44;14.37;;;3.17;;
20671;SDS011;10495;50.922;4.760;2023-02-01T12:37:33;7.40;;;2.30;;
20671;SDS011;10495;50.922;4.760;2023-02-01T12:42:55;10.10;;;2.87;;
20671;SDS011;10495;50.922;4.760;2023-02-01T12:45:32;12.93;;;2.33;;
20671;SDS011;10495;50.922;4.760;2023-02-01T12:48:36;11.77;;;2.73;;
20671;SDS011;10495;50.922;4.760;2023-02-01T12:50:59;12.40;;;2.60;;
20671;SDS011;10495;50.922;4.760;2023-02-01T12:56:31;6.03;;;2.00;;
20671;SDS011;10495;50.922;4.760;2023-02-01T12:59:04;10.00;;;2.27;;
20671;SDS011;10495;50.922;4.760;2023-02-01T13:01:46;10.10;;;2.43;;
20671;SDS011;10495;50.922;4.760;2023-02-01T13:04:31;10.90;;;3.07;;
20671;SDS011;10495;50.922;4.760;2023-02-01T13:07:10;9.20;;;2.33;;
20671;SDS011;10495;50.922;4.760;2023-02-01T13:09:46;7.97;;;2.03;;
20671;SDS011;10495;50.922;4.760;2023-02-01T13:12:24;7.23;;;2.43;;
20671;SDS011;10495;50.922;4.760;2023-02-01T13:14:57;15.40;;;2.20;;
20671;SDS011;10495;50.922;4.760;2023-02-01T13:17:28;10.50;;;2.40;;
20671;SDS011;10495;50.922;4.760;2023-02-01T13:22:42;8.20;;;2.20;;
20671;SDS011;10495;50.922;4.760;2023-02-01T13:25:16;6.97;;;2.07;;
20671;SDS011;10495;50.922;4.760;2023-02-01T13:27:46;9.33;;;2.30;;
20671;SDS011;10495;50.922;4.760;2023-02-01T13:33:05;7.73;;;2.10;;
20671;SDS011;10495;50.922;4.760;2023-02-01T13:41:20;5.83;;;2.07;;
20671;SDS011;10495;50.922;4.760;2023-02-01T13:43:49;9.53;;;2.17;;
20671;SDS011;10495;50.922;4.760;2023-02-01T13:46:17;11.57;;;2.90;;
20671;SDS011;10495;50.922;4.760;2023-02-01T13:51:35;11.80;;;2.73;;
20671;SDS011;10495;50.922;4.760;2023-02-01T13:54:05;8.73;;;1.90;;
20671;SDS011;10495;50.922;4.760;2023-02-01T13:56:39;13.67;;;3.30;;
20671;SDS011;10495;50.922;4.760;2023-02-01T13:59:35;8.90;;;2.80;;
20671;SDS011;10495;50.922;4.760;2023-02-01T14:05:53;6.00;;;2.10;;
20671;SDS011;10495;50.922;4.760;2023-02-01T14:11:03;8.13;;;2.20;;
20671;SDS011;10495;50.922;4.760;2023-02-01T14:13:37;6.00;;;2.03;;
20671;SDS011;10495;50.922;4.760;2023-02-01T14:23:40;8.70;;;2.37;;
20671;SDS011;10495;50.922;4.760;2023-02-01T14:26:08;11.37;;;2.63;;
20671;SDS011;10495;50.922;4.760;2023-02-01T14:28:38;8.83;;;2.20;;
20671;SDS011;10495;50.922;4.760;2023-02-01T14:31:14;7.63;;;2.43;;
20671;SDS011;10495;50.922;4.760;2023-02-01T14:33:57;9.33;;;2.67;;
20671;SDS011;10495;50.922;4.760;2023-02-01T14:36:25;7.30;;;2.10;;
20671;SDS011;10495;50.922;4.760;2023-02-01T14:38:51;8.30;;;2.57;;
20671;SDS011;10495;50.922;4.760;2023-02-01T14:41:23;7.30;;;2.10;;
20671;SDS011;10495;50.922;4.760;2023-02-01T14:43:51;11.33;;;2.40;;
20671;SDS011;10495;50.922;4.760;2023-02-01T14:49:33;6.27;;;2.20;;
20671;SDS011;10495;50.922;4.760;2023-02-01T14:52:16;7.97;;;2.30;;
20671;SDS011;10495;50.922;4.760;2023-02-01T14:54:49;9.30;;;2.87;;
20671;SDS011;10495;50.922;4.760;2023-02-01T14:57:19;7.93;;;2.20;;
20671;SDS011;10495;50.922;4.760;2023-02-01T14:59:49;10.20;;;2.70;;
20671;SDS011;10495;50.922;4.760;2023-02-01T15:02:23;9.00;;;2.40;;
20671;SDS011;10495;50.922;4.760;2023-02-01T15:04:55;11.87;;;2.50;;
20671;SDS011;10495;50.922;4.760;2023-02-01T15:07:22;7.13;;;2.17;;
20671;SDS011;10495;50.922;4.760;2023-02-01T15:09:50;12.50;;;2.90;;
20671;SDS011;10495;50.922;4.760;2023-02-01T15:12:22;11.73;;;2.57;;
20671;SDS011;10495;50.922;4.760;2023-02-01T15:15:12;6.80;;;2.37;;
20671;SDS011;10495;50.922;4.760;2023-02-01T15:17:49;8.57;;;2.30;;
20671;SDS011;10495;50.922;4.760;2023-02-01T15:22:54;7.63;;;2.30;;
20671;SDS011;10495;50.922;4.760;2023-02-01T15:25:26;7.67;;;2.23;;
20671;SDS011;10495;50.922;4.760;2023-02-01T15:28:01;10.10;;;2.60;;
20671;SDS011;10495;50.922;4.760;2023-02-01T15:30:28;9.47;;;2.97;;
20671;SDS011;10495;50.922;4.760;2023-02-01T15:35:43;8.20;;;2.40;;
20671;SDS011;10495;50.922;4.760;2023-02-01T15:46:11;11.97;;;2.50;;
20671;SDS011;10495;50.922;4.760;2023-02-01T15:48:42;12.53;;;2.70;;
20671;SDS011;10495;50.922;4.760;2023-02-01T15:51:12;9.13;;;2.77;;
20671;SDS011;10495;50.922;4.760;2023-02-01T15:53:52;12.80;;;3.40;;
20671;SDS011;10495;50.922;4.760;2023-02-01T15:56:22;11.83;;;2.57;;
20671;SDS011;10495;50.922;4.760;2023-02-01T15:58:51;10.30;;;2.80;;
20671;SDS011;10495;50.922;4.760;2023-02-01T16:01:22;11.53;;;2.97;;
20671;SDS011;10495;50.922;4.760;2023-02-01T16:03:48;6.03;;;2.57;;
20671;SDS011;10495;50.922;4.760;2023-02-01T16:09:00;13.73;;;3.00;;
20671;SDS011;10495;50.922;4.760;2023-02-01T16:11:30;8.80;;;3.53;;
20671;SDS011;10495;50.922;4.760;2023-02-01T16:14:00;13.03;;;3.43;;
20671;SDS011;10495;50.922;4.760;2023-02-01T16:16:27;15.53;;;2.93;;
20671;SDS011;10495;50.922;4.760;2023-02-01T16:18:53;14.20;;;3.33;;
20671;SDS011;10495;50.922;4.760;2023-02-01T16:21:19;11.73;;;3.30;;
20671;SDS011;10495;50.922;4.760;2023-02-01T16:23:49;10.90;;;4.50;;
20671;SDS011;10495;50.922;4.760;2023-02-01T16:26:18;14.13;;;3.17;;
20671;SDS011;10495;50.922;4.760;2023-02-01T16:28:44;12.47;;;3.03;;
20671;SDS011;10495;50.922;4.760;2023-02-01T16:31:19;14.40;;;3.37;;
20671;SDS011;10495;50.922;4.760;2023-02-01T16:33:49;11.30;;;2.90;;
20671;SDS011;10495;50.922;4.760;2023-02-01T16:36:15;12.73;;;3.20;;
20671;SDS011;10495;50.922;4.760;2023-02-01T16:38:41;11.50;;;2.97;;
20671;SDS011;10495;50.922;4.760;2023-02-01T16:41:15;10.87;;;3.90;;
20671;SDS011;10495;50.922;4.760;2023-02-01T16:43:43;16.73;;;4.20;;
20671;SDS011;10495;50.922;4.760;2023-02-01T16:46:14;19.07;;;3.60;;
20671;SDS011;10495;50.922;4.760;2023-02-01T16:48:42;9.17;;;3.43;;
20671;SDS011;10495;50.922;4.760;2023-02-01T16:51:12;9.07;;;3.33;;
20671;SDS011;10495;50.922;4.760;2023-02-01T16:53:40;21.10;;;4.17;;
20671;SDS011;10495;50.922;4.760;2023-02-01T16:56:22;6.70;;;3.17;;
20671;SDS011;10495;50.922;4.760;2023-02-01T16:58:51;8.80;;;2.93;;
20671;SDS011;10495;50.922;4.760;2023-02-01T17:01:18;14.87;;;3.60;;
20671;SDS011;10495;50.922;4.760;2023-02-01T17:03:44;11.27;;;3.90;;
20671;SDS011;10495;50.922;4.760;2023-02-01T17:06:11;11.73;;;3.33;;
20671;SDS011;10495;50.922;4.760;2023-02-01T17:08:45;16.33;;;3.97;;
20671;SDS011;10495;50.922;4.760;2023-02-01T17:11:14;12.83;;;4.43;;
20671;SDS011;10495;50.922;4.760;2023-02-01T17:13:40;9.37;;;3.17;;
20671;SDS011;10495;50.922;4.760;2023-02-01T17:16:25;13.63;;;3.33;;
20671;SDS011;10495;50.922;4.760;2023-02-01T17:18:54;8.13;;;3.10;;
20671;SDS011;10495;50.922;4.760;2023-02-01T17:21:23;16.70;;;3.73;;
20671;SDS011;10495;50.922;4.760;2023-02-01T17:23:50;11.50;;;3.53;;
20671;SDS011;10495;50.922;4.760;2023-02-01T17:26:17;11.30;;;3.73;;
20671;SDS011;10495;50.922;4.760;2023-02-01T17:28:43;14.53;;;3.67;;